Time;durP1;ratioP1;P1;durP2;ratioP2;P2;SDS_P1;SDS_P2;PMS_P1;PMS_P2;Temp;Humidity;BMP_temperature;BMP_pressure;BME280_temperature;BME280_humidity;BME280_pressure;Samples;Min_cycle;Max_cycle;Signal;HPM_P1;HPM_P2
2022/01/09 00:01:17;;;;;;;2.95;1.70;;;2.20;99.90;;;;;;5079494;28;20315;-69
2022/01/09 00:03:45;;;;;;;3.95;1.55;;;2.20;99.90;;;;;;5079424;28;20039;-69
2022/01/09 00:06:14;;;;;;;2.35;1.38;;;2.20;99.90;;;;;;5097162;28;20434;-69
2022/01/09 00:08:44;;;;;;;3.45;1.70;;;2.10;99.90;;;;;;5079539;28;20031;-69
2022/01/09 00:11:25;;;;;;;3.00;1.70;;;2.10;99.90;;;;;;5097004;28;20028;-69
2022/01/09 00:13:54;;;;;;;5.05;1.75;;;2.10;99.90;;;;;;5096416;28;20020;-69
2022/01/09 00:16:23;;;;;;;4.93;1.83;;;2.10;99.90;;;;;;5096081;28;20048;-69
2022/01/09 00:18:51;;;;;;;2.50;1.77;;;2.10;99.90;;;;;;5096286;28;20020;-69
2022/01/09 00:21:19;;;;;;;2.78;1.55;;;2.10;99.90;;;;;;5096327;28;20036;-69
2022/01/09 00:23:46;;;;;;;2.85;1.77;;;2.10;99.90;;;;;;5096124;28;20023;-69
2022/01/09 00:26:13;;;;;;;4.45;1.80;;;2.10;99.90;;;;;;5099459;28;20036;-69
2022/01/09 00:28:41;;;;;;;8.27;2.30;;;2.10;99.90;;;;;;5100452;28;20024;-69
2022/01/09 00:31:08;;;;;;;22.38;7.65;;;2.10;99.90;;;;;;5099837;28;20027;-69
2022/01/09 00:33:36;;;;;;;4.32;2.22;;;2.10;99.90;;;;;;5099820;28;20504;-69
2022/01/09 00:36:03;;;;;;;3.55;2.25;;;2.20;99.90;;;;;;5100139;28;20024;-69
2022/01/09 00:38:30;;;;;;;9.20;2.50;;;2.10;99.90;;;;;;5100627;28;20024;-69
2022/01/09 00:40:58;;;;;;;3.42;1.65;;;2.20;99.90;;;;;;5082627;28;20030;-69
2022/01/09 00:43:26;;;;;;;2.10;1.25;;;2.20;99.90;;;;;;5101096;28;20024;-69
2022/01/09 00:45:53;;;;;;;4.40;2.13;;;2.20;99.90;;;;;;5100728;28;20020;-69
2022/01/09 00:48:21;;;;;;;4.47;2.00;;;2.20;99.90;;;;;;5100484;28;20345;-69
2022/01/09 00:50:48;;;;;;;2.67;1.60;;;2.20;99.90;;;;;;5100439;28;20043;-69
2022/01/09 00:53:15;;;;;;;3.50;1.65;;;2.20;99.90;;;;;;5083104;28;20157;-69
2022/01/09 00:55:43;;;;;;;3.30;1.98;;;2.10;99.90;;;;;;5100370;28;20424;-69
2022/01/09 00:58:10;;;;;;;3.42;1.98;;;2.10;99.90;;;;;;5081319;28;20114;-69
2022/01/09 01:00:39;;;;;;;2.85;1.45;;;2.20;99.90;;;;;;5081718;28;20024;-69
2022/01/09 01:03:06;;;;;;;4.95;1.92;;;2.20;99.90;;;;;;5099204;28;20554;-69
2022/01/09 01:05:36;;;;;;;3.25;1.90;;;2.20;99.90;;;;;;5099963;28;20308;-69
2022/01/09 01:08:03;;;;;;;3.78;1.92;;;2.20;99.90;;;;;;5098995;28;20099;-69
2022/01/09 01:10:30;;;;;;;3.13;1.45;;;2.20;99.90;;;;;;5064604;28;20024;-69
2022/01/09 01:12:57;;;;;;;2.80;1.55;;;2.20;99.90;;;;;;5099335;28;20078;-69
2022/01/09 01:15:25;;;;;;;3.20;1.67;;;2.20;99.90;;;;;;5077686;28;20052;-69
2022/01/09 01:17:52;;;;;;;3.50;1.88;;;2.10;99.90;;;;;;5077661;28;20028;-69
2022/01/09 01:20:22;;;;;;;2.80;1.20;;;2.10;99.90;;;;;;5080014;28;20017;-69
2022/01/09 01:22:52;;;;;;;3.33;1.88;;;2.10;99.90;;;;;;5079377;28;20032;-69
2022/01/09 01:25:20;;;;;;;3.45;1.92;;;2.10;99.90;;;;;;5080020;28;20357;-69
2022/01/09 01:27:48;;;;;;;2.55;1.48;;;2.10;99.90;;;;;;5079530;28;20477;-69
2022/01/09 01:30:15;;;;;;;3.20;1.52;;;2.10;99.90;;;;;;5079982;28;20021;-69
2022/01/09 01:32:43;;;;;;;4.22;2.53;;;2.10;99.90;;;;;;5078932;28;20082;-69
2022/01/09 01:35:12;;;;;;;3.17;1.73;;;2.00;99.90;;;;;;5079347;28;20035;-69
2022/01/09 01:37:42;;;;;;;3.88;1.90;;;2.00;99.90;;;;;;5078717;28;20035;-69
2022/01/09 01:40:17;;;;;;;3.70;1.73;;;2.00;99.90;;;;;;5078385;28;20071;-69
2022/01/09 01:42:46;;;;;;;2.83;1.83;;;2.00;99.90;;;;;;5078296;28;20021;-69
2022/01/09 01:45:14;;;;;;;3.78;1.90;;;2.00;99.90;;;;;;5078646;28;20145;-69
2022/01/09 01:47:41;;;;;;;2.97;1.85;;;2.00;99.90;;;;;;5077128;28;20476;-69
2022/01/09 01:50:11;;;;;;;4.07;1.90;;;2.00;99.90;;;;;;5060426;28;20028;-69
2022/01/09 01:52:43;;;;;;;3.28;1.88;;;2.00;99.90;;;;;;5078401;28;20032;-69
2022/01/09 01:55:14;;;;;;;3.33;1.58;;;2.00;99.90;;;;;;5078191;28;20028;-69
2022/01/09 01:57:43;;;;;;;2.75;1.65;;;2.00;99.90;;;;;;5076875;28;20101;-69
2022/01/09 02:00:14;;;;;;;4.18;1.92;;;2.10;99.90;;;;;;5076915;28;20032;-69
2022/01/09 02:02:42;;;;;;;3.13;1.83;;;2.10;99.90;;;;;;5079186;28;20021;-69
2022/01/09 02:05:10;;;;;;;5.35;1.90;;;2.10;99.90;;;;;;5079279;28;20047;-69
2022/01/09 02:07:38;;;;;;;3.08;1.75;;;2.10;99.90;;;;;;5077731;28;20028;-69
2022/01/09 02:10:08;;;;;;;5.80;2.13;;;2.10;99.90;;;;;;5078614;28;20024;-69
2022/01/09 02:12:40;;;;;;;3.15;1.90;;;2.20;99.90;;;;;;5078698;28;20435;-69
2022/01/09 02:15:37;;;;;;;4.43;1.92;;;2.20;99.90;;;;;;5081692;28;21573;-69
2022/01/09 02:18:07;;;;;;;3.67;2.03;;;2.20;99.90;;;;;;5099034;28;20024;-69
2022/01/09 02:20:36;;;;;;;3.13;1.60;;;2.20;99.90;;;;;;5098587;28;20048;-69
2022/01/09 02:23:06;;;;;;;4.00;2.00;;;2.20;99.90;;;;;;5097662;28;20016;-69
2022/01/09 02:25:34;;;;;;;3.63;1.90;;;2.20;99.90;;;;;;5097735;28;20296;-69
2022/01/09 02:28:02;;;;;;;2.15;1.45;;;2.20;99.90;;;;;;5097658;28;20016;-69
2022/01/09 02:30:32;;;;;;;3.08;1.73;;;2.20;99.90;;;;;;5097966;28;20024;-69
2022/01/09 02:33:01;;;;;;;3.55;1.73;;;2.20;99.90;;;;;;5080198;28;20027;-69
2022/01/09 02:35:29;;;;;;;3.20;1.80;;;2.20;99.90;;;;;;5097449;28;20074;-69
2022/01/09 02:37:57;;;;;;;3.30;1.85;;;2.20;99.90;;;;;;5097379;28;20020;-69
2022/01/09 02:40:24;;;;;;;3.10;1.80;;;2.20;99.90;;;;;;5079615;28;20024;-69
2022/01/09 02:42:53;;;;;;;3.17;1.80;;;2.20;99.90;;;;;;5097624;28;20081;-69
2022/01/09 02:45:23;;;;;;;4.07;1.90;;;2.20;99.90;;;;;;5098183;28;20066;-69
2022/01/09 02:47:53;;;;;;;4.05;1.50;;;2.20;99.90;;;;;;5097743;28;20031;-69
2022/01/09 02:52:56;;;;;;;4.15;1.90;;;2.20;99.90;;;;;;5098080;28;20056;-69
2022/01/09 02:55:26;;;;;;;2.83;1.58;;;2.30;99.90;;;;;;5097872;28;20016;-69
2022/01/09 02:57:59;;;;;;;3.00;1.20;;;2.30;99.90;;;;;;5097982;28;20028;-69
2022/01/09 03:00:37;;;;;;;3.00;1.77;;;2.30;99.90;;;;;;5097866;28;20051;-69
2022/01/09 03:03:05;;;;;;;4.28;2.00;;;2.30;99.90;;;;;;5097278;28;20016;-69
2022/01/09 03:05:32;;;;;;;3.08;1.95;;;2.30;99.90;;;;;;5097685;28;20031;-69
2022/01/09 03:08:00;;;;;;;4.15;1.92;;;2.30;99.90;;;;;;5096910;28;20308;-69
2022/01/09 03:10:28;;;;;;;2.20;1.50;;;2.40;99.90;;;;;;5097795;28;20304;-69
2022/01/09 03:12:56;;;;;;;3.03;1.65;;;2.40;99.90;;;;;;5062349;28;20035;-69
2022/01/09 03:15:24;;;;;;;2.38;1.60;;;2.40;99.90;;;;;;5096736;28;20044;-69
2022/01/09 03:17:52;;;;;;;3.17;1.98;;;2.40;99.90;;;;;;5096843;28;20020;-69
2022/01/09 03:20:24;;;;;;;3.55;1.85;;;2.30;99.90;;;;;;5096687;28;20024;-69
2022/01/09 03:22:53;;;;;;;3.53;1.85;;;2.40;99.90;;;;;;5095608;28;20027;-69
2022/01/09 03:25:21;;;;;;;2.72;1.42;;;2.40;99.90;;;;;;5097449;28;20475;-69
2022/01/09 03:27:49;;;;;;;2.83;1.70;;;2.40;99.90;;;;;;5097638;28;20309;-69
2022/01/09 03:30:18;;;;;;;3.78;1.65;;;2.40;99.90;;;;;;5097538;28;20032;-69
2022/01/09 03:32:47;;;;;;;3.17;1.80;;;2.40;99.90;;;;;;5097551;28;20031;-69
2022/01/09 03:35:18;;;;;;;3.00;1.67;;;2.40;99.90;;;;;;5097576;28;20020;-69
2022/01/09 03:37:47;;;;;;;3.08;1.77;;;2.40;99.90;;;;;;5097419;28;20042;-69
2022/01/09 03:40:20;;;;;;;2.22;1.50;;;2.40;99.90;;;;;;5098049;28;20023;-69
2022/01/09 03:42:51;;;;;;;3.22;1.67;;;2.40;99.90;;;;;;5079626;28;20070;-69
2022/01/09 03:45:20;;;;;;;2.80;1.60;;;2.40;99.90;;;;;;5097164;28;20081;-69
2022/01/09 03:47:48;;;;;;;3.25;1.70;;;2.40;99.90;;;;;;5096520;28;20020;-69
2022/01/09 03:50:16;;;;;;;3.22;1.35;;;2.40;99.90;;;;;;5096460;28;20027;-69
2022/01/09 03:52:43;;;;;;;2.80;1.70;;;2.40;99.90;;;;;;5078662;28;20088;-69
2022/01/09 03:55:12;;;;;;;3.05;1.55;;;2.40;99.90;;;;;;5079080;28;20017;-69
2022/01/09 03:57:40;;;;;;;2.92;1.60;;;2.40;99.90;;;;;;5096507;28;20149;-69
2022/01/09 04:00:13;;;;;;;4.00;1.80;;;2.40;99.90;;;;;;5098235;28;20016;-69
2022/01/09 04:02:42;;;;;;;2.67;1.55;;;2.40;99.90;;;;;;5100378;28;20035;-69
2022/01/09 04:05:10;;;;;;;2.90;1.60;;;2.40;99.90;;;;;;5082366;28;20114;-69
2022/01/09 04:07:39;;;;;;;4.97;1.40;;;2.40;99.90;;;;;;5100757;28;20069;-69
2022/01/09 04:10:06;;;;;;;2.50;1.50;;;2.30;99.90;;;;;;5101787;28;20111;-69
2022/01/09 04:12:36;;;;;;;2.95;1.92;;;2.30;99.90;;;;;;5083662;28;20024;-69
2022/01/09 04:15:08;;;;;;;1.90;1.20;;;2.30;99.90;;;;;;5100996;28;20035;-69
2022/01/09 04:17:43;;;;;;;2.63;1.48;;;2.40;99.90;;;;;;5101313;28;20319;-69
2022/01/09 04:20:12;;;;;;;2.15;1.40;;;2.30;99.90;;;;;;5101604;28;20048;-69
2022/01/09 04:22:40;;;;;;;2.03;1.35;;;2.30;99.90;;;;;;5083049;28;20035;-69
2022/01/09 04:25:08;;;;;;;3.17;1.80;;;2.30;99.90;;;;;;5101458;28;20024;-69
2022/01/09 04:27:36;;;;;;;2.50;1.83;;;2.30;99.90;;;;;;5082046;28;20103;-69
2022/01/09 04:30:05;;;;;;;2.50;1.30;;;2.30;99.90;;;;;;5099838;28;20309;-69
2022/01/09 04:32:33;;;;;;;3.05;1.45;;;2.30;99.90;;;;;;5099998;28;20015;-69
2022/01/09 04:35:01;;;;;;;2.20;1.25;;;2.20;99.90;;;;;;5100411;28;20024;-69
2022/01/09 04:37:29;;;;;;;1.98;1.27;;;2.20;99.90;;;;;;5081803;28;20463;-69
2022/01/09 04:39:57;;;;;;;2.17;1.30;;;2.20;99.90;;;;;;5100030;28;20031;-69
2022/01/09 04:42:32;;;;;;;2.53;1.48;;;2.20;99.90;;;;;;5099860;28;20051;-69
2022/01/09 04:45:00;;;;;;;2.80;1.45;;;2.20;99.90;;;;;;5099524;28;20024;-69
2022/01/09 04:47:29;;;;;;;3.10;1.20;;;2.20;99.90;;;;;;5099633;28;20031;-69
2022/01/09 04:49:56;;;;;;;2.90;1.63;;;2.10;99.90;;;;;;5082257;28;20038;-69
2022/01/09 04:52:27;;;;;;;2.25;1.10;;;2.20;99.90;;;;;;5100631;28;20420;-69
2022/01/09 04:54:55;;;;;;;2.30;1.30;;;2.20;99.90;;;;;;5100219;28;20437;-69
2022/01/09 04:57:22;;;;;;;2.35;1.08;;;2.20;99.90;;;;;;5100267;28;20028;-69
2022/01/09 04:59:50;;;;;;;1.75;1.00;;;2.20;99.90;;;;;;5100241;28;20034;-69
2022/01/09 05:02:17;;;;;;;2.17;1.30;;;2.20;99.90;;;;;;5082359;28;20111;-69
2022/01/09 05:04:44;;;;;;;3.05;1.45;;;2.20;99.90;;;;;;5100153;28;20035;-69
2022/01/09 05:07:11;;;;;;;2.38;1.25;;;2.20;99.90;;;;;;5082128;28;20024;-69
2022/01/09 05:09:39;;;;;;;1.60;0.90;;;2.20;99.90;;;;;;5099462;28;20107;-69
2022/01/09 05:12:06;;;;;;;2.08;1.13;;;2.20;99.90;;;;;;5080306;28;20020;-69
2022/01/09 05:14:34;;;;;;;2.10;0.90;;;2.20;99.90;;;;;;5098962;28;20106;-69
2022/01/09 05:17:01;;;;;;;1.50;0.80;;;2.20;99.90;;;;;;5077548;28;20495;-69
2022/01/09 05:19:29;;;;;;;1.42;0.70;;;2.10;99.90;;;;;;5077643;28;20371;-69
2022/01/09 05:22:01;;;;;;;1.17;0.77;;;2.20;99.90;;;;;;5078681;28;20017;-69
2022/01/09 05:24:29;;;;;;;1.65;0.80;;;2.10;99.90;;;;;;5078597;28;20408;-69
2022/01/09 05:26:56;;;;;;;3.17;1.33;;;2.10;99.90;;;;;;5078602;28;20428;-69
2022/01/09 05:29:23;;;;;;;1.35;0.80;;;2.10;99.90;;;;;;5077797;28;20093;-69
2022/01/09 05:31:51;;;;;;;1.63;0.95;;;2.10;99.90;;;;;;5078939;28;20029;-69
2022/01/09 05:34:19;;;;;;;4.78;2.22;;;2.10;99.90;;;;;;5078965;28;20314;-69
2022/01/09 05:36:47;;;;;;;4.28;1.50;;;2.10;99.90;;;;;;5079463;28;20073;-69
2022/01/09 05:39:14;;;;;;;3.40;1.30;;;2.10;99.90;;;;;;5079555;28;20021;-69
2022/01/09 05:41:43;;;;;;;5.97;1.88;;;2.10;99.90;;;;;;5079534;28;20056;-69
2022/01/09 05:44:11;;;;;;;2.92;1.55;;;2.10;99.90;;;;;;5079222;28;20035;-69
2022/01/09 05:46:39;;;;;;;4.50;1.85;;;2.10;99.90;;;;;;5079390;28;20476;-69
2022/01/09 05:49:07;;;;;;;2.60;1.20;;;2.00;99.90;;;;;;5077985;28;20024;-69
2022/01/09 05:51:35;;;;;;;4.05;1.60;;;2.00;99.90;;;;;;5078585;28;20020;-69
2022/01/09 05:54:02;;;;;;;2.33;1.20;;;2.00;99.90;;;;;;5078627;28;20021;-69
2022/01/09 05:56:29;;;;;;;3.15;1.48;;;2.00;99.90;;;;;;5077153;28;20384;-69
2022/01/09 05:58:57;;;;;;;2.10;1.17;;;2.00;99.90;;;;;;5077995;28;20420;-69
2022/01/09 06:01:24;;;;;;;3.55;2.00;;;2.00;99.90;;;;;;5078509;28;20074;-69
2022/01/09 06:03:52;;;;;;;3.53;1.80;;;1.90;99.90;;;;;;5078435;28;20111;-69
2022/01/09 06:06:19;;;;;;;3.67;1.75;;;1.90;99.90;;;;;;5078510;28;20100;-69
2022/01/09 06:08:47;;;;;;;3.53;2.15;;;1.90;99.90;;;;;;5077742;28;20435;-69
2022/01/09 06:11:14;;;;;;;3.60;1.88;;;1.90;99.90;;;;;;5076630;28;20043;-69
2022/01/09 06:13:42;;;;;;;5.25;2.05;;;1.90;99.90;;;;;;5078037;28;20017;-69
2022/01/09 06:16:09;;;;;;;2.05;1.00;;;1.90;99.90;;;;;;5077465;28;20454;-69
2022/01/09 06:18:36;;;;;;;2.17;1.10;;;1.90;99.90;;;;;;5078566;28;20028;-69
2022/01/09 06:21:04;;;;;;;1.98;1.00;;;1.80;99.90;;;;;;5077446;28;20032;-69
2022/01/09 06:23:31;;;;;;;1.88;0.82;;;1.80;99.90;;;;;;5077162;28;20029;-69
2022/01/09 06:25:58;;;;;;;1.65;0.95;;;1.80;99.90;;;;;;5077521;28;20033;-69
2022/01/09 06:28:27;;;;;;;1.67;0.80;;;1.80;99.90;;;;;;5078338;28;20029;-69
2022/01/09 06:30:54;;;;;;;1.52;0.90;;;1.90;99.90;;;;;;5078296;28;20035;-69
2022/01/09 06:33:21;;;;;;;1.58;0.75;;;1.80;99.90;;;;;;5077972;28;20020;-69
2022/01/09 06:35:49;;;;;;;1.45;0.80;;;1.80;99.90;;;;;;5077857;28;20013;-69
2022/01/09 06:38:17;;;;;;;2.03;1.17;;;1.80;99.90;;;;;;5077153;28;20048;-69
2022/01/09 06:40:44;;;;;;;2.15;1.15;;;1.80;99.90;;;;;;5077493;28;20417;-69
2022/01/09 06:43:11;;;;;;;2.03;1.10;;;1.80;99.90;;;;;;5075990;28;20355;-69
2022/01/09 06:45:38;;;;;;;1.83;1.02;;;1.70;99.90;;;;;;5076698;28;20025;-69
2022/01/09 06:48:06;;;;;;;2.20;1.38;;;1.70;99.90;;;;;;5076010;28;20040;-69
2022/01/09 06:50:33;;;;;;;1.60;0.95;;;1.60;99.90;;;;;;5077757;28;20017;-69
2022/01/09 06:53:00;;;;;;;2.22;1.17;;;1.60;99.90;;;;;;5076865;28;20103;-69
2022/01/09 06:55:27;;;;;;;1.83;1.10;;;1.50;99.90;;;;;;5077201;28;20359;-69
2022/01/09 06:57:55;;;;;;;1.85;1.00;;;1.40;99.90;;;;;;5078100;28;20021;-69
2022/01/09 07:00:22;;;;;;;2.85;1.48;;;1.40;99.90;;;;;;5078390;28;20057;-69
2022/01/09 07:02:50;;;;;;;2.72;1.50;;;1.30;99.90;;;;;;5077726;28;20035;-69
2022/01/09 07:05:17;;;;;;;2.35;1.50;;;1.30;99.90;;;;;;5077858;28;20021;-69
2022/01/09 07:07:44;;;;;;;2.00;1.30;;;1.20;99.90;;;;;;5076546;28;20025;-69
2022/01/09 07:10:13;;;;;;;1.60;1.00;;;1.20;99.90;;;;;;5076552;28;20024;-69
2022/01/09 07:12:41;;;;;;;2.58;1.38;;;1.10;99.90;;;;;;5077636;28;20088;-69
2022/01/09 07:15:10;;;;;;;1.77;0.95;;;1.10;99.90;;;;;;5079836;28;20418;-70
2022/01/09 07:17:37;;;;;;;1.20;0.80;;;1.00;99.90;;;;;;5096957;28;20028;-69
2022/01/09 07:20:05;;;;;;;1.90;0.80;;;1.00;99.90;;;;;;5078960;28;20020;-69
2022/01/09 07:22:32;;;;;;;1.50;0.82;;;1.00;99.90;;;;;;5078856;28;20031;-70
2022/01/09 07:24:59;;;;;;;1.48;0.90;;;0.90;99.90;;;;;;5096981;28;20024;-71
2022/01/09 07:27:27;;;;;;;1.38;0.70;;;0.90;99.90;;;;;;5096916;28;20035;-69
2022/01/09 07:29:54;;;;;;;1.58;0.70;;;0.90;99.90;;;;;;5096723;28;20043;-70
2022/01/09 07:32:22;;;;;;;4.22;2.85;;;0.80;99.90;;;;;;5097174;28;20024;-70
2022/01/09 07:34:50;;;;;;;4.03;2.47;;;0.80;99.90;;;;;;5096070;28;20104;-70
2022/01/09 07:37:17;;;;;;;32.67;13.57;;;0.80;99.90;;;;;;5096769;28;20115;-70
2022/01/09 07:39:44;;;;;;;18.73;8.02;;;0.80;99.90;;;;;;5097809;28;20031;-70
2022/01/09 07:42:12;;;;;;;1.45;0.70;;;0.80;99.90;;;;;;5079726;28;20032;-70
2022/01/09 07:44:39;;;;;;;1.63;0.55;;;0.80;99.90;;;;;;5097485;28;20364;-70
2022/01/09 07:47:07;;;;;;;2.17;0.90;;;0.80;99.90;;;;;;5097415;28;20032;-70
2022/01/09 07:49:34;;;;;;;1.33;0.80;;;0.80;99.90;;;;;;5079727;28;20028;-70
2022/01/09 07:52:02;;;;;;;2.22;1.08;;;0.80;99.90;;;;;;5097596;28;20032;-70
2022/01/09 07:54:30;;;;;;;2.47;1.20;;;0.80;99.90;;;;;;5097390;28;20020;-69
2022/01/09 07:56:57;;;;;;;2.58;1.42;;;0.80;99.90;;;;;;5080389;28;20054;-69
2022/01/09 07:59:25;;;;;;;2.78;1.67;;;0.80;99.90;;;;;;5096723;28;20025;-72
2022/01/09 08:01:52;;;;;;;2.60;1.38;;;0.90;99.90;;;;;;5096456;28;20032;-70
2022/01/09 08:04:19;;;;;;;4.07;2.05;;;1.00;99.90;;;;;;5096569;28;20028;-70
2022/01/09 08:06:47;;;;;;;3.05;1.50;;;1.00;99.90;;;;;;5079158;28;20023;-69
2022/01/09 08:09:14;;;;;;;3.58;1.83;;;1.00;99.90;;;;;;5096459;28;20032;-69
2022/01/09 08:11:41;;;;;;;4.43;2.42;;;1.10;99.90;;;;;;5096208;28;20029;-69
2022/01/09 08:14:08;;;;;;;5.60;2.42;;;1.10;99.90;;;;;;5078491;28;20021;-71
2022/01/09 08:16:36;;;;;;;4.28;2.50;;;1.10;99.90;;;;;;5074848;28;20127;-71
2022/01/09 08:19:03;;;;;;;6.38;2.95;;;1.10;99.90;;;;;;5076050;28;20028;-72
2022/01/09 08:21:30;;;;;;;5.88;3.10;;;1.10;99.90;;;;;;5075983;28;20353;-72
2022/01/09 08:23:57;;;;;;;6.20;3.20;;;1.10;99.90;;;;;;5075857;28;20094;-72
2022/01/09 08:26:25;;;;;;;9.80;4.32;;;1.20;99.90;;;;;;5076806;28;20040;-71
2022/01/09 08:28:54;;;;;;;8.07;4.15;;;1.20;99.90;;;;;;5076854;28;20031;-70
2022/01/09 08:31:22;;;;;;;8.35;4.03;;;1.20;99.90;;;;;;5076775;28;20037;-71
2022/01/09 08:33:50;;;;;;;11.75;4.07;;;1.30;99.90;;;;;;5077401;28;20047;-71
2022/01/09 08:36:17;;;;;;;6.70;3.72;;;1.30;99.90;;;;;;5077550;28;20044;-73
2022/01/09 08:38:45;;;;;;;9.90;5.35;;;1.40;99.90;;;;;;5076757;28;20063;-71
2022/01/09 08:41:12;;;;;;;6.88;4.05;;;1.40;99.90;;;;;;5076142;28;20025;-72
2022/01/09 08:43:39;;;;;;;6.40;3.42;;;1.50;99.90;;;;;;5075404;28;20020;-71
2022/01/09 08:46:08;;;;;;;7.93;3.38;;;1.60;99.90;;;;;;5076580;28;20431;-71
2022/01/09 08:48:36;;;;;;;5.30;3.40;;;1.70;99.90;;;;;;5079275;28;20039;-72
2022/01/09 08:51:06;;;;;;;7.47;3.60;;;1.70;99.90;;;;;;5079788;28;20335;-72
2022/01/09 08:53:35;;;;;;;7.60;3.05;;;1.80;99.90;;;;;;5079529;28;20031;-72
2022/01/09 08:56:04;;;;;;;10.18;3.92;;;1.90;99.90;;;;;;5079502;28;20021;-72
2022/01/09 08:58:32;;;;;;;8.38;3.95;;;1.90;99.90;;;;;;5079399;28;20054;-72
2022/01/09 09:01:00;;;;;;;12.45;4.25;;;2.00;99.90;;;;;;5079650;28;20416;-69
2022/01/09 09:03:27;;;;;;;9.68;4.35;;;2.10;99.90;;;;;;5079490;28;20035;-69
2022/01/09 09:05:54;;;;;;;8.93;4.18;;;2.20;99.90;;;;;;5079979;28;20017;-69
2022/01/09 09:08:21;;;;;;;7.78;3.58;;;2.20;99.90;;;;;;5078769;28;20086;-69
2022/01/09 09:10:48;;;;;;;8.88;4.07;;;2.30;99.90;;;;;;5079864;28;20020;-69
2022/01/09 09:13:16;;;;;;;6.68;3.80;;;2.40;99.90;;;;;;5080446;28;20078;-69
2022/01/09 09:15:44;;;;;;;7.47;3.25;;;2.40;99.90;;;;;;5078649;28;20055;-69
2022/01/09 09:18:11;;;;;;;11.82;4.43;;;2.50;99.90;;;;;;5080192;28;20024;-68
2022/01/09 09:20:39;;;;;;;9.88;3.88;;;2.50;99.90;;;;;;5079735;28;20028;-69
2022/01/09 09:23:06;;;;;;;9.35;4.30;;;2.60;99.90;;;;;;5079108;28;20104;-69
2022/01/09 09:25:34;;;;;;;9.95;4.60;;;2.70;99.90;;;;;;5078727;28;20032;-69
2022/01/09 09:28:02;;;;;;;8.38;3.55;;;2.80;99.90;;;;;;5078616;28;20021;-69
2022/01/09 09:30:29;;;;;;;11.50;3.92;;;2.90;99.90;;;;;;5078840;28;20034;-69
2022/01/09 09:32:57;;;;;;;11.75;2.92;;;2.90;99.90;;;;;;5078264;28;20337;-69
2022/01/09 09:35:25;;;;;;;11.48;4.15;;;3.00;99.90;;;;;;5078094;28;20428;-68
2022/01/09 09:37:52;;;;;;;17.95;4.88;;;3.10;99.90;;;;;;5078650;28;20024;-68
2022/01/09 09:40:19;;;;;;;11.10;3.05;;;3.20;99.90;;;;;;5078348;28;20025;-69
2022/01/09 09:42:46;;;;;;;12.75;3.30;;;3.30;99.90;;;;;;5078143;28;20043;-69
2022/01/09 09:45:14;;;;;;;8.90;2.80;;;3.30;99.90;;;;;;5078910;28;20059;-69
2022/01/09 09:47:41;;;;;;;7.03;2.22;;;3.40;99.90;;;;;;5079180;28;20028;-69
2022/01/09 09:50:12;;;;;;;13.75;3.22;;;3.50;99.90;;;;;;5079404;28;20404;-69
2022/01/09 09:52:42;;;;;;;11.80;3.25;;;3.50;99.90;;;;;;5079073;28;20412;-69
2022/01/09 09:55:09;;;;;;;15.65;4.30;;;3.60;99.90;;;;;;5079519;28;20017;-69
2022/01/09 09:57:37;;;;;;;10.48;2.88;;;3.60;99.90;;;;;;5078156;28;20116;-69
2022/01/09 10:00:12;;;;;;;12.98;2.97;;;3.70;99.90;;;;;;5079440;28;20024;-68
2022/01/09 10:02:55;;;;;;;14.77;3.13;;;3.70;99.90;;;;;;5079037;28;20044;-69
2022/01/09 10:05:26;;;;;;;5.55;2.78;;;3.80;99.90;;;;;;5077088;28;20020;-69
2022/01/09 10:07:54;;;;;;;12.80;3.55;;;3.80;99.90;;;;;;5077754;28;20103;-69
2022/01/09 10:10:31;;;;;;;7.43;2.42;;;3.80;99.90;;;;;;5076805;28;20442;-69
2022/01/09 10:13:13;;;;;;;;;;;3.80;99.90;;;;;;5077991;28;20033;-68
2022/01/09 10:15:47;;;;;;;20.38;2.85;;;3.90;99.90;;;;;;5076421;28;19964;-69
2022/01/09 10:18:35;;;;;;;12.55;2.70;;;4.00;99.90;;;;;;5077480;28;20103;-68
2022/01/09 10:21:22;;;;;;;10.55;1.90;;;4.00;99.90;;;;;;5077536;28;20383;-68
2022/01/09 10:24:11;;;;;;;10.13;2.65;;;4.10;99.90;;;;;;5077364;28;20114;-68
2022/01/09 10:26:49;;;;;;;19.33;2.47;;;4.10;99.90;;;;;;5077461;28;20459;-69
2022/01/09 10:29:21;;;;;;;4.03;1.63;;;4.20;99.90;;;;;;5078334;28;20029;-69
2022/01/09 10:31:51;;;;;;;10.57;2.55;;;4.20;99.90;;;;;;5078456;28;20028;-68
2022/01/09 10:34:18;;;;;;;9.75;1.80;;;4.30;99.90;;;;;;5078162;28;20103;-68
2022/01/09 10:36:51;;;;;;;10.18;1.33;;;4.30;99.90;;;;;;5078156;28;20305;-68
2022/01/09 10:39:23;;;;;;;11.60;1.90;;;4.30;99.90;;;;;;5078074;28;20025;-68
2022/01/09 10:41:56;;;;;;;7.43;1.70;;;4.30;99.90;;;;;;5078843;28;20431;-69
2022/01/09 10:44:31;;;;;;;11.77;2.88;;;4.30;99.90;;;;;;5077938;28;20029;-69
2022/01/09 10:47:15;;;;;;;6.35;1.65;;;4.30;99.90;;;;;;5077831;28;20024;-68
2022/01/09 10:49:52;;;;;;;12.25;2.15;;;4.40;99.90;;;;;;5075834;28;20032;-69
2022/01/09 10:52:29;;;;;;;8.55;1.42;;;4.40;99.90;;;;;;5075750;28;20099;-68
2022/01/09 10:54:59;;;;;;;5.40;1.50;;;4.40;99.90;;;;;;5077503;28;20024;-68
2022/01/09 10:57:28;;;;;;;8.02;2.05;;;4.40;99.90;;;;;;5077674;28;20404;-68
2022/01/09 11:00:10;;;;;;;12.95;2.10;;;4.40;99.90;;;;;;5076821;28;20020;-68
2022/01/09 11:02:37;;;;;;;10.77;1.80;;;4.50;99.90;;;;;;5077553;28;20104;-68
2022/01/09 11:05:06;;;;;;;17.98;2.03;;;4.50;99.90;;;;;;5075696;28;20029;-68
2022/01/09 11:07:33;;;;;;;14.68;2.10;;;4.50;99.90;;;;;;5077171;28;20487;-68
2022/01/09 11:10:01;;;;;;;8.32;2.42;;;4.50;99.90;;;;;;5076655;28;20139;-68
2022/01/09 11:12:35;;;;;;;6.68;1.48;;;4.50;99.90;;;;;;5077566;28;20497;-68
2022/01/09 11:15:04;;;;;;;12.02;2.17;;;4.50;99.90;;;;;;5079491;28;20034;-68
2022/01/09 11:17:32;;;;;;;4.75;1.73;;;4.50;99.90;;;;;;5098342;28;20073;-68
2022/01/09 11:20:00;;;;;;;14.40;1.98;;;4.40;99.90;;;;;;5097838;28;20092;-68
2022/01/09 11:22:29;;;;;;;12.85;1.80;;;4.40;99.90;;;;;;5063521;28;20024;-68
2022/01/09 11:25:37;;;;;;;12.73;2.65;;;4.40;99.90;;;;;;5080143;28;20079;-68
2022/01/09 11:28:34;;;;;;;12.00;1.90;;;4.40;99.90;;;;;;5098211;28;20025;-68
2022/01/09 11:31:27;;;;;;;12.85;3.10;;;4.40;99.90;;;;;;5096808;28;20024;-68
2022/01/09 11:34:30;;;;;;;6.57;2.70;;;4.40;99.90;;;;;;5097245;28;20304;-68
2022/01/09 11:37:09;;;;;;;12.20;2.28;;;4.40;99.90;;;;;;5096576;28;20031;-68
2022/01/09 11:39:37;;;;;;;10.05;2.47;;;4.40;99.90;;;;;;5097260;28;20273;-68
2022/01/09 11:42:10;;;;;;;8.20;2.00;;;4.40;99.90;;;;;;5096726;28;20028;-68
2022/01/09 11:44:51;;;;;;;12.38;3.60;;;4.40;99.90;;;;;;5096630;28;20027;-68
2022/01/09 11:47:19;;;;;;;5.90;2.20;;;4.30;99.90;;;;;;5096553;28;20044;-68
2022/01/09 11:49:53;;;;;;;7.93;2.00;;;4.30;99.90;;;;;;5096776;28;20090;-67
2022/01/09 11:52:24;;;;;;;6.25;2.15;;;4.30;99.90;;;;;;5097364;28;20095;-67
2022/01/09 11:55:04;;;;;;;17.73;1.60;;;4.30;99.90;;;;;;5097947;28;20028;-69
2022/01/09 11:57:47;;;;;;;12.35;1.92;;;4.30;99.90;;;;;;5097706;28;20028;-68
2022/01/09 12:00:38;;;;;;;9.60;2.45;;;4.30;99.90;;;;;;5097217;28;20048;-68
2022/01/09 12:03:27;;;;;;;7.22;2.03;;;4.30;99.90;;;;;;5097309;28;20029;-68
2022/01/09 12:06:05;;;;;;;10.93;3.15;;;4.30;99.90;;;;;;5097847;28;20442;-69
2022/01/09 12:08:57;;;;;;;8.05;3.13;;;4.30;99.90;;;;;;5097240;28;20308;-71
2022/01/09 12:12:02;;;;;;;11.95;2.33;;;4.40;99.90;;;;;;5097550;28;20449;-69
2022/01/09 12:14:56;;;;;;;12.90;2.13;;;4.40;99.90;;;;;;5082262;28;20331;-69
2022/01/09 12:17:27;;;;;;;10.88;2.53;;;4.40;99.90;;;;;;5076792;28;20033;-69
2022/01/09 12:20:15;;;;;;;9.52;2.75;;;4.40;99.90;;;;;;5076610;28;20096;-69
2022/01/09 12:22:46;;;;;;;7.30;2.20;;;4.40;99.90;;;;;;5078441;28;20032;-68
2022/01/09 12:25:23;;;;;;;9.70;2.78;;;4.40;99.90;;;;;;5061966;28;20024;-70
2022/01/09 12:27:59;;;;;;;13.93;2.95;;;4.40;99.90;;;;;;5079641;28;20451;-70
2022/01/09 12:30:40;;;;;;;9.10;3.00;;;4.40;99.90;;;;;;5080306;28;20070;-70
2022/01/09 12:33:15;;;;;;;11.50;2.97;;;4.40;99.90;;;;;;5079643;28;20028;-70
2022/01/09 12:36:15;;;;;;;15.52;2.92;;;4.40;99.90;;;;;;5080560;28;20039;-70
2022/01/09 12:38:44;;;;;;;5.88;1.90;;;4.40;99.90;;;;;;5080291;28;20020;-68
2022/01/09 12:41:18;;;;;;;7.10;2.15;;;4.40;99.90;;;;;;5080357;28;20024;-68
2022/01/09 12:43:46;;;;;;;16.17;3.35;;;4.30;99.90;;;;;;5080655;28;20017;-69
2022/01/09 12:46:17;;;;;;;5.70;2.53;;;4.30;99.90;;;;;;5080561;28;20021;-69
2022/01/09 12:48:59;;;;;;;18.10;3.20;;;4.30;99.90;;;;;;5080198;28;20020;-69
2022/01/09 12:51:30;;;;;;;9.55;2.83;;;4.30;99.90;;;;;;5080217;28;20375;-69
2022/01/09 12:54:02;;;;;;;8.00;2.30;;;4.30;99.90;;;;;;5079414;28;20092;-69
2022/01/09 12:56:35;;;;;;;13.30;2.70;;;4.30;99.90;;;;;;5061651;28;20017;-69
2022/01/09 12:59:07;;;;;;;16.60;3.75;;;4.30;99.90;;;;;;5079081;28;20028;-69
2022/01/09 13:01:42;;;;;;;16.85;3.72;;;4.30;99.90;;;;;;5079023;28;20484;-68
2022/01/09 13:04:18;;;;;;;11.10;3.30;;;4.30;99.90;;;;;;5079008;28;20056;-69
2022/01/09 13:06:49;;;;;;;16.48;2.80;;;4.30;99.90;;;;;;5079105;28;20102;-68
2022/01/09 13:09:20;;;;;;;11.35;2.80;;;4.30;99.90;;;;;;5078793;28;20031;-68
2022/01/09 13:11:58;;;;;;;7.95;2.47;;;4.30;99.90;;;;;;5078866;28;20020;-69
2022/01/09 13:14:25;;;;;;;11.13;2.42;;;4.30;99.90;;;;;;5078758;28;20024;-69